createdAt,value
2023-06-10T00:00:17.053Z,11
2023-06-10T00:05:20.018Z,9
2023-06-10T00:10:20.093Z,6
2023-06-10T00:15:20.040Z,0
2023-06-10T00:20:20.009Z,0
2023-06-10T00:25:20.070Z,0
2023-06-10T00:30:17.072Z,0
2023-06-10T00:35:20.086Z,0
2023-06-10T00:40:17.069Z,0
2023-06-10T00:45:20.116Z,0
2023-06-10T00:50:19.996Z,0
2023-06-10T00:55:19.995Z,0
2023-06-10T01:00:20.067Z,0
2023-06-10T01:05:17.072Z,0
2023-06-10T01:10:20.107Z,0
2023-06-10T01:15:20.050Z,0
2023-06-10T01:20:17.061Z,0
2023-06-10T01:25:20.067Z,0
2023-06-10T01:30:20.065Z,0
2023-06-10T01:35:17.075Z,0
2023-06-10T01:40:20.047Z,0
2023-06-10T01:45:17.090Z,0
2023-06-10T01:50:20.050Z,0
2023-06-10T01:55:20.110Z,0
2023-06-10T02:00:17.110Z,0
2023-06-10T02:05:20.056Z,0
2023-06-10T02:10:20.092Z,0
2023-06-10T02:15:17.074Z,0
2023-06-10T02:20:20.078Z,0
2023-06-10T02:25:20.061Z,0
2023-06-10T02:30:20.129Z,0
2023-06-10T02:35:20.033Z,0
2023-06-10T02:40:20.114Z,0
2023-06-10T02:45:20.068Z,0
2023-06-10T02:50:20.076Z,0
2023-06-10T02:55:17.106Z,0
2023-06-10T03:00:20.100Z,0
2023-06-10T03:05:20.100Z,0
2023-06-10T03:10:17.178Z,0
2023-06-10T03:15:20.097Z,0
2023-06-10T03:20:20.203Z,0
2023-06-10T03:25:17.090Z,0
2023-06-10T03:30:17.137Z,0
2023-06-10T03:35:20.081Z,0
2023-06-10T03:40:17.105Z,0
2023-06-10T03:45:20.076Z,0
2023-06-10T03:50:20.110Z,0
2023-06-10T03:55:17.148Z,0
2023-06-10T04:00:19.405Z,0
2023-06-10T04:05:19.381Z,0
2023-06-10T04:10:19.346Z,0
2023-06-10T04:15:16.394Z,0
2023-06-10T04:20:19.379Z,0
2023-06-10T04:25:19.353Z,0
2023-06-10T04:30:16.382Z,0
2023-06-10T04:35:19.340Z,0
2023-06-10T04:40:16.385Z,0
2023-06-10T04:45:16.463Z,0
2023-06-10T04:50:19.368Z,0
2023-06-10T04:55:19.588Z,0
2023-06-10T05:00:16.487Z,0
2023-06-10T05:05:19.354Z,0
2023-06-10T05:10:19.414Z,0
2023-06-10T05:15:16.438Z,0
2023-06-10T05:20:19.457Z,0
2023-06-10T05:25:16.412Z,0
2023-06-10T05:30:19.496Z,0
2023-06-10T05:35:19.447Z,0
2023-06-10T05:40:16.479Z,0
2023-06-10T05:45:19.389Z,0
2023-06-10T05:50:19.461Z,0
2023-06-10T05:55:16.444Z,0
2023-06-10T06:00:19.614Z,0
2023-06-10T06:05:16.493Z,0
2023-06-10T06:10:19.461Z,0
2023-06-10T06:15:19.617Z,0
2023-06-10T06:20:20.361Z,0
2023-06-10T06:25:19.498Z,0
2023-06-10T06:30:19.392Z,0
2023-06-10T06:35:16.461Z,0
2023-06-10T06:40:19.419Z,0
2023-06-10T06:45:19.436Z,0
2023-06-10T06:50:16.475Z,0
2023-06-10T06:55:16.473Z,0
2023-06-10T07:00:19.499Z,0
2023-06-10T07:05:16.495Z,0
2023-06-10T07:10:19.441Z,0
2023-06-10T07:15:19.390Z,0
2023-06-10T07:20:16.478Z,0
2023-06-10T07:25:16.257Z,0
2023-06-10T07:30:19.544Z,0
2023-06-10T07:35:19.459Z,0
2023-06-10T07:40:19.463Z,0
2023-06-10T07:45:19.483Z,0
2023-06-10T07:50:16.467Z,0
2023-06-10T07:55:16.473Z,0
2023-06-10T08:00:19.441Z,0
2023-06-10T08:05:16.576Z,0
2023-06-10T08:10:19.433Z,0
2023-06-10T08:15:16.479Z,0
2023-06-10T08:20:16.542Z,0
2023-06-10T08:25:19.480Z,0
2023-06-10T08:30:19.500Z,0
2023-06-10T08:35:16.515Z,0
2023-06-10T08:40:19.558Z,0
2023-06-10T08:45:19.431Z,0
2023-06-10T08:50:16.578Z,0
2023-06-10T08:55:16.511Z,0
2023-06-10T09:00:19.510Z,0
2023-06-10T09:05:16.531Z,0
2023-06-10T09:10:19.670Z,0
2023-06-10T09:15:19.457Z,0
2023-06-10T09:20:19.550Z,0
2023-06-10T09:25:16.522Z,0
2023-06-10T09:30:16.532Z,0
2023-06-10T09:35:19.523Z,0
2023-06-10T09:40:16.547Z,3
2023-06-10T09:45:19.548Z,5
2023-06-10T09:50:19.674Z,6
2023-06-10T09:55:16.561Z,8
2023-06-10T10:00:19.588Z,9
2023-06-10T10:05:19.708Z,11
2023-06-10T10:10:16.422Z,12
2023-06-10T10:15:19.473Z,15
2023-06-10T10:20:19.475Z,19
2023-06-10T10:25:16.633Z,21
2023-06-10T10:30:16.675Z,25
2023-06-10T10:35:19.504Z,29
2023-06-10T10:40:19.558Z,26
2023-06-10T10:45:16.546Z,26
2023-06-10T10:50:16.621Z,22
2023-06-10T10:55:19.563Z,22
2023-06-10T11:00:19.549Z,27
2023-06-10T11:05:19.732Z,39
2023-06-10T11:10:16.547Z,54
2023-06-10T11:15:16.593Z,52
2023-06-10T11:20:19.520Z,45
2023-06-10T11:25:16.421Z,61
2023-06-10T11:30:16.409Z,61
2023-06-10T11:35:16.613Z,55
2023-06-10T11:40:19.521Z,70
2023-06-10T11:45:16.566Z,141
2023-06-10T11:50:19.605Z,100
2023-06-10T11:55:19.545Z,121
2023-06-10T12:00:16.651Z,126
2023-06-10T12:05:19.577Z,95
2023-06-10T12:10:27.097Z,118
2023-06-10T12:15:16.584Z,100
2023-06-10T12:20:19.657Z,112
2023-06-10T12:25:16.582Z,130
2023-06-10T12:30:19.615Z,137
2023-06-10T12:35:16.569Z,128
2023-06-10T12:40:19.585Z,118
2023-06-10T12:45:19.652Z,141
2023-06-10T12:50:19.579Z,154
2023-06-10T12:55:19.564Z,169
2023-06-10T13:00:16.593Z,167
2023-06-10T13:05:20.107Z,178
2023-06-10T13:10:16.571Z,240
2023-06-10T13:15:19.590Z,259
2023-06-10T13:20:16.622Z,168
2023-06-10T13:25:16.959Z,135
2023-06-10T13:30:16.666Z,108
2023-06-10T13:35:16.649Z,133
2023-06-10T13:40:19.680Z,150
2023-06-10T13:45:16.608Z,126
2023-06-10T13:50:19.623Z,139
2023-06-10T13:55:19.580Z,163
2023-06-10T14:00:19.565Z,147
2023-06-10T14:05:19.610Z,154
2023-06-10T14:10:19.565Z,177
2023-06-10T14:15:19.602Z,139
2023-06-10T14:20:16.656Z,161
2023-06-10T14:25:16.622Z,199
2023-06-10T14:30:19.626Z,177
2023-06-10T14:35:19.601Z,140
2023-06-10T14:40:19.572Z,260
2023-06-10T14:45:19.598Z,232
2023-06-10T14:50:19.620Z,168
2023-06-10T14:55:19.666Z,295
2023-06-10T15:00:19.619Z,216
2023-06-10T15:05:19.690Z,209
2023-06-10T15:10:16.681Z,489
2023-06-10T15:15:16.676Z,868
2023-06-10T15:20:19.628Z,594
2023-06-10T15:25:30.038Z,154
2023-06-10T15:30:19.662Z,139
2023-06-10T15:35:19.662Z,630
2023-06-10T15:40:19.650Z,856
2023-06-10T15:45:19.635Z,264
2023-06-10T15:50:16.700Z,444
2023-06-10T15:55:19.675Z,1000
2023-06-10T16:00:19.713Z,234
2023-06-10T16:05:16.447Z,198
2023-06-10T16:10:19.645Z,1009
2023-06-10T16:15:19.711Z,1023
2023-06-10T16:20:19.681Z,1023
2023-06-10T16:25:16.712Z,220
2023-06-10T16:30:16.839Z,767
2023-06-10T16:35:19.680Z,264
2023-06-10T16:40:16.666Z,991
2023-06-10T16:45:16.678Z,1047
2023-06-10T16:50:19.673Z,138
2023-06-10T16:55:19.712Z,154
2023-06-10T17:00:19.697Z,1020
2023-06-10T17:05:19.672Z,660
2023-06-10T17:10:16.686Z,200
2023-06-10T17:15:16.709Z,213
2023-06-10T17:20:19.702Z,139
2023-06-10T17:25:19.698Z,91
2023-06-10T17:30:16.779Z,72
2023-06-10T17:35:19.669Z,92
2023-06-10T17:40:16.835Z,77
2023-06-10T17:45:16.764Z,47
2023-06-10T17:50:20.200Z,79
2023-06-10T17:55:19.711Z,153
2023-06-10T18:00:16.719Z,147
2023-06-10T18:05:19.683Z,92
2023-06-10T18:10:19.665Z,54
2023-06-10T18:15:19.695Z,16
2023-06-10T18:20:19.758Z,10
2023-06-10T18:25:16.724Z,21
2023-06-10T18:30:16.738Z,147
2023-06-10T18:35:16.733Z,139
2023-06-10T18:40:19.798Z,226
2023-06-10T18:45:19.744Z,218
2023-06-10T18:50:16.823Z,194
2023-06-10T18:55:19.800Z,144
2023-06-10T19:00:16.805Z,66
2023-06-10T19:05:19.680Z,139
2023-06-10T19:10:19.701Z,179
2023-06-10T19:15:19.681Z,177
2023-06-10T19:20:19.747Z,231
2023-06-10T19:25:19.718Z,188
2023-06-10T19:30:19.727Z,109
2023-06-10T19:35:16.742Z,97
2023-06-10T19:40:16.830Z,105
2023-06-10T19:45:16.830Z,100
2023-06-10T19:50:16.750Z,75
2023-06-10T19:55:19.774Z,69
2023-06-10T20:00:16.711Z,74
2023-06-10T20:05:16.767Z,74
2023-06-10T20:10:19.819Z,77
2023-06-10T20:15:19.773Z,89
2023-06-10T20:20:19.737Z,59
2023-06-10T20:25:16.763Z,60
2023-06-10T20:30:19.739Z,51
2023-06-10T20:35:19.813Z,56
2023-06-10T20:40:19.727Z,46
2023-06-10T20:45:19.705Z,48
2023-06-10T20:50:19.742Z,44
2023-06-10T20:55:19.721Z,43
2023-06-10T21:00:19.729Z,41
2023-06-10T21:05:19.742Z,40
2023-06-10T21:10:16.770Z,39
2023-06-10T21:15:16.772Z,37
2023-06-10T21:20:16.833Z,37
2023-06-10T21:25:19.784Z,35
2023-06-10T21:30:19.745Z,34
2023-06-10T21:35:16.801Z,34
2023-06-10T21:40:19.893Z,33
2023-06-10T21:45:19.856Z,32
2023-06-10T21:50:19.767Z,33
2023-06-10T21:55:19.810Z,32
2023-06-10T22:00:19.786Z,32
2023-06-10T22:05:16.800Z,30
2023-06-10T22:10:19.830Z,30
2023-06-10T22:15:19.843Z,30
2023-06-10T22:20:16.845Z,32
2023-06-10T22:25:16.804Z,29
2023-06-10T22:30:19.822Z,29
2023-06-10T22:35:16.872Z,27
2023-06-10T22:40:16.821Z,19
2023-06-10T22:45:19.880Z,18
2023-06-10T22:50:19.778Z,20
2023-06-10T22:55:16.826Z,20
2023-06-10T23:00:19.826Z,15
2023-06-10T23:05:16.885Z,12
2023-06-10T23:10:16.828Z,12
2023-06-10T23:15:19.807Z,10
2023-06-10T23:20:16.799Z,8
2023-06-10T23:25:19.880Z,6
2023-06-10T23:30:19.807Z,5
2023-06-10T23:35:18.841Z,0
2023-06-10T23:40:19.917Z,0
2023-06-10T23:45:16.872Z,0
2023-06-10T23:50:20.028Z,0
2023-06-10T23:55:19.837Z,0
